Time;durP1;ratioP1;P1;durP2;ratioP2;P2;SDS_P1;SDS_P2;PMS_P1;PMS_P2;Temp;Humidity;BMP_temperature;BMP_pressure;BME280_temperature;BME280_humidity;BME280_pressure;Samples;Min_cycle;Max_cycle;Signal;HPM_P1;HPM_P2
2022/12/26 00:01:54;;;;;;;4.85;2.83;;;;;;;;;;5026703;28;20214;-77
2022/12/26 00:04:20;;;;;;;4.43;2.72;;;;;;;;;;5029897;28;20461;-77
2022/12/26 00:06:46;;;;;;;3.95;2.47;;;;;;;;;;5027728;28;20053;-78
2022/12/26 00:09:12;;;;;;;6.18;2.63;;;;;;;;;;5024882;28;20436;-78
2022/12/26 00:11:38;;;;;;;4.50;2.70;;;;;;;;;;5023777;28;20037;-77
2022/12/26 00:14:06;;;;;;;5.82;2.92;;;;;;;;;;5027970;28;20481;-78
2022/12/26 00:16:45;;;;;;;3.97;2.80;;;;;;;;;;5028155;28;20033;-78
2022/12/26 00:19:12;;;;;;;3.70;2.42;;;;;;;;;;5027856;28;20557;-79
2022/12/26 00:21:38;;;;;;;4.40;2.70;;;;;;;;;;5021123;28;20021;-78
2022/12/26 00:24:04;;;;;;;5.00;2.35;;;;;;;;;;5023668;28;20036;-77
2022/12/26 00:26:31;;;;;;;4.57;2.67;;;;;;;;;;5023644;28;20428;-78
2022/12/26 00:28:57;;;;;;;3.58;2.50;;;;;;;;;;5026761;28;20021;-78
2022/12/26 00:31:25;;;;;;;6.28;3.08;;;;;;;;;;5025430;28;20061;-78
2022/12/26 00:33:51;;;;;;;3.58;2.20;;;;;;;;;;5022076;28;20089;-78
2022/12/26 00:36:19;;;;;;;3.92;2.38;;;;;;;;;;5026229;28;20037;-78
2022/12/26 00:38:46;;;;;;;3.70;2.35;;;;;;;;;;5027350;28;20103;-78
2022/12/26 00:41:12;;;;;;;3.75;2.25;;;;;;;;;;5023186;28;20045;-78
2022/12/26 00:43:38;;;;;;;5.30;2.70;;;;;;;;;;5024859;28;20057;-78
2022/12/26 00:46:05;;;;;;;3.90;2.30;;;;;;;;;;5027414;28;20056;-78
2022/12/26 00:48:31;;;;;;;3.22;2.30;;;;;;;;;;5026582;28;20588;-78
2022/12/26 00:50:57;;;;;;;4.03;2.30;;;;;;;;;;5028509;28;20563;-78
2022/12/26 00:53:24;;;;;;;3.88;2.25;;;;;;;;;;5027248;28;20037;-78
2022/12/26 00:55:50;;;;;;;3.88;2.42;;;;;;;;;;5024846;28;20029;-78
2022/12/26 00:58:16;;;;;;;3.83;2.10;;;;;;;;;;5024654;28;20120;-78
2022/12/26 01:00:42;;;;;;;3.88;2.33;;;;;;;;;;5027086;28;20021;-78
2022/12/26 01:03:08;;;;;;;4.00;2.30;;;;;;;;;;5027413;28;20033;-78
2022/12/26 01:05:35;;;;;;;4.28;2.08;;;;;;;;;;5024670;28;20030;-78
2022/12/26 01:08:01;;;;;;;2.75;2.00;;;;;;;;;;5031241;28;20452;-78
2022/12/26 01:10:27;;;;;;;3.80;2.22;;;;;;;;;;5025165;28;20041;-78
2022/12/26 01:12:53;;;;;;;3.75;1.90;;;;;;;;;;5027040;28;20114;-77
2022/12/26 01:15:19;;;;;;;5.07;2.30;;;;;;;;;;5024832;28;20037;-78
2022/12/26 01:17:45;;;;;;;2.72;2.13;;;;;;;;;;5025683;28;20034;-77
2022/12/26 01:20:11;;;;;;;3.38;2.13;;;;;;;;;;5023318;28;20028;-77
2022/12/26 01:22:37;;;;;;;3.08;2.00;;;;;;;;;;5030472;28;20393;-78
2022/12/26 01:25:03;;;;;;;4.55;2.20;;;;;;;;;;5025357;28;20069;-78
2022/12/26 01:27:29;;;;;;;3.90;2.20;;;;;;;;;;5022360;28;20026;-78
2022/12/26 01:29:55;;;;;;;3.00;2.10;;;;;;;;;;5023809;28;20033;-78
2022/12/26 01:32:21;;;;;;;2.55;1.85;;;;;;;;;;5028208;28;20048;-78
2022/12/26 01:34:47;;;;;;;3.70;2.10;;;;;;;;;;5028425;28;20029;-78
2022/12/26 01:37:14;;;;;;;3.90;2.00;;;;;;;;;;5026106;28;20030;-78
2022/12/26 01:39:40;;;;;;;3.28;1.77;;;;;;;;;;5027728;28;20104;-78
2022/12/26 01:42:13;;;;;;;4.40;2.00;;;;;;;;;;5024897;28;20021;-77
2022/12/26 01:44:54;;;;;;;3.08;1.90;;;;;;;;;;5026128;28;20076;-79
2022/12/26 01:47:21;;;;;;;2.42;1.98;;;;;;;;;;5021210;28;20528;-78
2022/12/26 01:49:50;;;;;;;2.25;1.80;;;;;;;;;;5029714;28;20124;-77
2022/12/26 01:52:19;;;;;;;3.65;2.13;;;;;;;;;;5029995;28;20026;-78
2022/12/26 01:54:47;;;;;;;3.55;1.83;;;;;;;;;;5034062;28;20029;-77
2022/12/26 01:57:18;;;;;;;3.83;2.30;;;;;;;;;;5030526;28;20025;-77
2022/12/26 01:59:45;;;;;;;3.15;1.73;;;;;;;;;;5029350;28;20039;-77
2022/12/26 02:02:11;;;;;;;1.77;1.40;;;;;;;;;;5028816;28;20032;-78
2022/12/26 02:07:25;;;;;;;2.53;2.00;;;;;;;;;;5029065;28;20212;-78
2022/12/26 02:09:51;;;;;;;2.97;1.70;;;;;;;;;;5028890;28;20079;-78
2022/12/26 02:12:20;;;;;;;3.05;1.90;;;;;;;;;;5027770;28;20113;-78
2022/12/26 02:14:47;;;;;;;2.33;1.77;;;;;;;;;;5031283;28;20103;-78
2022/12/26 02:17:13;;;;;;;3.40;1.65;;;;;;;;;;5032413;28;20033;-78
2022/12/26 02:19:54;;;;;;;2.13;1.80;;;;;;;;;;5025697;28;20179;-78
2022/12/26 02:22:28;;;;;;;3.03;1.70;;;;;;;;;;5028644;28;20603;-77
2022/12/26 02:25:04;;;;;;;1.90;1.50;;;;;;;;;;5035337;28;20024;-78
2022/12/26 02:27:56;;;;;;;2.38;1.63;;;;;;;;;;5033788;28;20032;-78
2022/12/26 02:30:35;;;;;;;2.17;1.40;;;;;;;;;;5021869;28;20586;-78
2022/12/26 02:33:20;;;;;;;2.42;1.60;;;;;;;;;;5025920;28;20231;-78
2022/12/26 02:35:52;;;;;;;3.10;1.60;;;;;;;;;;5024195;28;20087;-78
2022/12/26 02:38:18;;;;;;;2.67;1.60;;;;;;;;;;5026823;28;20040;-78
2022/12/26 02:41:03;;;;;;;3.60;1.63;;;;;;;;;;5024954;28;20042;-78
2022/12/26 02:43:35;;;;;;;2.25;1.50;;;;;;;;;;5029417;28;20032;-78
2022/12/26 02:48:57;;;;;;;3.05;1.60;;;;;;;;;;5028500;28;20056;-78
2022/12/26 03:14:18;;;;;;;1.73;1.50;;;;;;;;;;5029421;28;20064;-78
2022/12/26 03:19:35;;;;;;;2.78;1.70;;;;;;;;;;5028465;28;20551;-77
2022/12/26 03:22:29;;;;;;;2.10;1.73;;;;;;;;;;5028511;28;20026;-78
2022/12/26 03:27:36;;;;;;;2.13;1.63;;;;;;;;;;5024563;28;20036;-77
2022/12/26 03:32:47;;;;;;;1.52;1.00;;;;;;;;;;5025950;28;20164;-78
2022/12/26 03:35:14;;;;;;;2.28;1.35;;;;;;;;;;5027171;28;20029;-78
2022/12/26 03:37:49;;;;;;;2.90;1.50;;;;;;;;;;5025678;28;20103;-78
2022/12/26 04:41:34;;;;;;;1.10;1.00;;;;;;;;;;5025053;28;20032;-78
2022/12/26 04:46:22;;;;;;;0.88;0.88;;;;;;;;;;5018543;28;20549;-78
2022/12/26 04:51:35;;;;;;;2.47;1.10;;;;;;;;;;5017961;28;20049;-78
2022/12/26 04:54:01;;;;;;;1.88;1.13;;;;;;;;;;5024170;28;20041;-78
2022/12/26 04:56:27;;;;;;;1.30;0.98;;;;;;;;;;5023306;28;20064;-77
2022/12/26 04:59:22;;;;;;;1.80;1.38;;;;;;;;;;5031463;28;20025;-78
2022/12/26 05:10:13;;;;;;;1.75;1.00;;;;;;;;;;5026393;28;20055;-77
2022/12/26 05:12:39;;;;;;;2.60;1.27;;;;;;;;;;5025024;28;20034;-78
2022/12/26 05:15:05;;;;;;;1.48;1.00;;;;;;;;;;5025549;28;20017;-78
2022/12/26 05:28:59;;;;;;;1.08;0.95;;;;;;;;;;5041939;28;20037;-79
2022/12/26 05:31:25;;;;;;;1.38;1.00;;;;;;;;;;5028231;28;20045;-77
2022/12/26 05:34:11;;;;;;;1.15;0.93;;;;;;;;;;5027847;28;20048;-78
2022/12/26 05:36:38;;;;;;;2.10;1.00;;;;;;;;;;5028211;28;20591;-77
2022/12/26 05:39:05;;;;;;;2.45;1.20;;;;;;;;;;5026327;28;20461;-78
2022/12/26 05:41:31;;;;;;;1.08;0.90;;;;;;;;;;5026403;28;20384;-78
2022/12/26 05:44:10;;;;;;;1.15;0.95;;;;;;;;;;5029358;28;20029;-78
2022/12/26 05:46:36;;;;;;;1.10;1.00;;;;;;;;;;5029573;28;20029;-78
2022/12/26 05:49:06;;;;;;;1.33;1.05;;;;;;;;;;5026017;28;20025;-78
2022/12/26 05:51:32;;;;;;;1.40;1.15;;;;;;;;;;5026646;28;20049;-78
2022/12/26 05:53:58;;;;;;;1.63;1.17;;;;;;;;;;5032068;28;20060;-77
2022/12/26 05:56:25;;;;;;;0.88;0.77;;;;;;;;;;5028828;28;20025;-77
2022/12/26 05:58:58;;;;;;;1.33;1.00;;;;;;;;;;5027322;28;20045;-77
2022/12/26 06:01:25;;;;;;;2.05;1.20;;;;;;;;;;5028003;28;20065;-78
2022/12/26 06:03:52;;;;;;;1.10;0.95;;;;;;;;;;5031953;28;20051;-77
2022/12/26 06:06:19;;;;;;;1.15;1.05;;;;;;;;;;5022828;28;20022;-77
2022/12/26 06:08:48;;;;;;;0.98;0.90;;;;;;;;;;5026020;28;20029;-77
2022/12/26 06:11:15;;;;;;;1.15;0.98;;;;;;;;;;5031227;28;20070;-77
2022/12/26 06:13:41;;;;;;;1.02;0.82;;;;;;;;;;5027115;28;20048;-77
2022/12/26 06:16:08;;;;;;;1.55;0.88;;;;;;;;;;5029035;28;20476;-77
2022/12/26 06:18:34;;;;;;;0.90;0.90;;;;;;;;;;5028404;28;20029;-77
2022/12/26 06:21:03;;;;;;;0.90;0.90;;;;;;;;;;5030273;28;20057;-77
2022/12/26 06:23:29;;;;;;;1.30;1.20;;;;;;;;;;5029426;28;20475;-77
2022/12/26 06:25:56;;;;;;;1.42;0.93;;;;;;;;;;5028102;28;20037;-78
2022/12/26 06:28:22;;;;;;;1.30;1.00;;;;;;;;;;5029040;28;20026;-77
2022/12/26 06:30:48;;;;;;;0.98;0.80;;;;;;;;;;5025108;28;20451;-77
2022/12/26 06:33:18;;;;;;;5.47;1.00;;;;;;;;;;5030751;28;20401;-76
2022/12/26 06:35:51;;;;;;;0.90;0.80;;;;;;;;;;5032869;28;20518;-77
2022/12/26 06:38:17;;;;;;;1.10;1.00;;;;;;;;;;5029689;28;20395;-77
2022/12/26 06:40:43;;;;;;;1.17;1.05;;;;;;;;;;5026975;28;20030;-77
2022/12/26 06:43:09;;;;;;;1.77;0.98;;;;;;;;;;5026701;28;20476;-77
2022/12/26 06:45:35;;;;;;;1.42;1.00;;;;;;;;;;5029086;28;20021;-78
2022/12/26 06:48:02;;;;;;;0.80;0.80;;;;;;;;;;5028477;28;20075;-76
2022/12/26 06:50:28;;;;;;;1.17;0.82;;;;;;;;;;5027272;28;20026;-77
2022/12/26 06:52:54;;;;;;;1.13;1.02;;;;;;;;;;5027389;28;20021;-78
2022/12/26 06:55:20;;;;;;;0.73;0.70;;;;;;;;;;5025386;28;20083;-78
2022/12/26 06:57:45;;;;;;;1.77;1.05;;;;;;;;;;5026653;28;20033;-77
2022/12/26 07:00:12;;;;;;;1.42;1.10;;;;;;;;;;5027518;28;20022;-77
2022/12/26 07:02:38;;;;;;;2.88;1.35;;;;;;;;;;5029211;28;20756;-77
2022/12/26 07:05:04;;;;;;;1.08;0.80;;;;;;;;;;5026929;28;20025;-78
2022/12/26 07:07:30;;;;;;;1.00;0.90;;;;;;;;;;5026693;28;20411;-77
2022/12/26 07:09:56;;;;;;;1.33;0.98;;;;;;;;;;5025534;28;20028;-77
2022/12/26 07:12:22;;;;;;;1.25;0.85;;;;;;;;;;5025597;28;20129;-77
2022/12/26 07:14:48;;;;;;;0.70;0.70;;;;;;;;;;5023544;28;20580;-78
2022/12/26 07:17:14;;;;;;;1.10;1.00;;;;;;;;;;5024245;28;20059;-78
2022/12/26 07:19:40;;;;;;;1.10;1.00;;;;;;;;;;5021284;28;20037;-78
2022/12/26 07:22:06;;;;;;;1.10;0.80;;;;;;;;;;5028338;28;20021;-78
2022/12/26 07:24:32;;;;;;;1.00;0.90;;;;;;;;;;5026943;28;20029;-78
2022/12/26 07:26:58;;;;;;;0.85;0.82;;;;;;;;;;5024069;28;20030;-78
2022/12/26 07:29:24;;;;;;;0.75;0.75;;;;;;;;;;5025556;28;20021;-79
2022/12/26 07:31:50;;;;;;;1.02;0.90;;;;;;;;;;5029625;28;20060;-78
2022/12/26 07:34:16;;;;;;;1.00;0.80;;;;;;;;;;5029199;28;20021;-78
2022/12/26 07:36:42;;;;;;;1.38;1.10;;;;;;;;;;5039918;28;20068;-78
2022/12/26 07:39:11;;;;;;;1.30;0.90;;;;;;;;;;5031870;28;20029;-78
2022/12/26 07:44:22;;;;;;;1.60;0.90;;;;;;;;;;5019746;28;20072;-78
2022/12/26 07:46:48;;;;;;;1.30;1.00;;;;;;;;;;5029161;28;20056;-77
2022/12/26 07:49:14;;;;;;;1.55;1.10;;;;;;;;;;5028499;28;20479;-77
2022/12/26 07:51:40;;;;;;;1.77;0.95;;;;;;;;;;5032763;28;20025;-80
2022/12/26 07:54:06;;;;;;;0.82;0.82;;;;;;;;;;5038634;28;20403;-77
2022/12/26 07:56:32;;;;;;;1.40;1.00;;;;;;;;;;5029061;28;20021;-77
2022/12/26 07:59:17;;;;;;;3.60;1.05;;;;;;;;;;5029297;28;20082;-77
2022/12/26 08:01:44;;;;;;;0.90;0.90;;;;;;;;;;5022095;28;20021;-76
2022/12/26 08:04:11;;;;;;;1.23;1.08;;;;;;;;;;5039188;28;20033;-77
2022/12/26 08:06:37;;;;;;;1.17;1.00;;;;;;;;;;5026834;28;20025;-77
2022/12/26 08:09:03;;;;;;;0.82;0.82;;;;;;;;;;5030584;28;20025;-78
2022/12/26 08:11:31;;;;;;;4.80;1.27;;;;;;;;;;5028741;28;20046;-78
2022/12/26 08:13:57;;;;;;;0.98;0.73;;;;;;;;;;5032690;28;20030;-78
2022/12/26 08:16:23;;;;;;;0.80;0.80;;;;;;;;;;5023313;28;20046;-80
2022/12/26 08:18:58;;;;;;;1.83;1.23;;;;;;;;;;5027712;28;20029;-79
2022/12/26 08:21:24;;;;;;;1.95;1.08;;;;;;;;;;5025598;28;20485;-79
2022/12/26 08:23:50;;;;;;;0.90;0.82;;;;;;;;;;5036378;28;20025;-79
2022/12/26 08:26:21;;;;;;;0.93;0.80;;;;;;;;;;5029593;28;20132;-80
2022/12/26 08:28:47;;;;;;;1.75;0.95;;;;;;;;;;5033344;28;20108;-79
2022/12/26 08:31:13;;;;;;;0.88;0.75;;;;;;;;;;5016668;28;20451;-79
2022/12/26 08:33:39;;;;;;;1.63;1.13;;;;;;;;;;5028270;28;20041;-79
2022/12/26 08:36:06;;;;;;;3.00;1.00;;;;;;;;;;5027911;28;20034;-79
2022/12/26 08:38:32;;;;;;;1.30;0.90;;;;;;;;;;5025934;28;20496;-79
2022/12/26 08:40:58;;;;;;;3.17;1.02;;;;;;;;;;5027049;28;20033;-79
2022/12/26 08:43:24;;;;;;;1.17;0.90;;;;;;;;;;5030252;28;20634;-79
2022/12/26 08:46:00;;;;;;;2.75;1.00;;;;;;;;;;5030132;28;20040;-79
2022/12/26 08:48:26;;;;;;;1.65;1.13;;;;;;;;;;5025693;28;20384;-79
2022/12/26 08:50:58;;;;;;;1.38;0.95;;;;;;;;;;5028484;28;20033;-79
2022/12/26 08:53:25;;;;;;;1.75;1.10;;;;;;;;;;5029442;28;20392;-79
2022/12/26 08:55:51;;;;;;;1.45;1.00;;;;;;;;;;5027897;28;20060;-79
2022/12/26 08:58:17;;;;;;;0.98;0.77;;;;;;;;;;5026111;28;20033;-79
2022/12/26 09:00:43;;;;;;;0.80;0.80;;;;;;;;;;5028108;28;20738;-79
2022/12/26 09:03:09;;;;;;;0.90;0.70;;;;;;;;;;5026715;28;20453;-79
2022/12/26 09:05:35;;;;;;;1.45;1.00;;;;;;;;;;5028037;28;20480;-79
2022/12/26 09:08:01;;;;;;;1.17;0.95;;;;;;;;;;5031372;28;20900;-79
2022/12/26 09:10:27;;;;;;;1.33;0.90;;;;;;;;;;5028163;28;20060;-80
2022/12/26 09:12:52;;;;;;;1.33;0.80;;;;;;;;;;5028706;28;20503;-79
2022/12/26 09:15:18;;;;;;;2.13;0.90;;;;;;;;;;5027151;28;20029;-80
2022/12/26 09:17:44;;;;;;;0.82;0.82;;;;;;;;;;5031289;28;20639;-79
2022/12/26 09:20:10;;;;;;;1.75;1.17;;;;;;;;;;5024564;28;20455;-79
2022/12/26 09:22:55;;;;;;;1.27;1.02;;;;;;;;;;5031699;28;20113;-79
2022/12/26 09:25:25;;;;;;;0.93;0.88;;;;;;;;;;5025045;28;20079;-79
2022/12/26 09:27:54;;;;;;;1.15;0.95;;;;;;;;;;5024112;28;20031;-78
2022/12/26 09:30:21;;;;;;;0.88;0.88;;;;;;;;;;5026652;28;20417;-78
2022/12/26 09:32:47;;;;;;;1.10;0.82;;;;;;;;;;5022661;28;20052;-79
2022/12/26 09:35:13;;;;;;;1.52;0.95;;;;;;;;;;5027299;28;20021;-80
2022/12/26 09:37:39;;;;;;;0.80;0.80;;;;;;;;;;5026746;28;20044;-79
2022/12/26 09:40:06;;;;;;;1.08;0.77;;;;;;;;;;5028257;28;20030;-78
2022/12/26 09:42:54;;;;;;;1.08;0.90;;;;;;;;;;5028036;28;20040;-78
2022/12/26 09:45:27;;;;;;;0.70;0.70;;;;;;;;;;5022884;28;20063;-78
2022/12/26 09:48:13;;;;;;;1.95;0.80;;;;;;;;;;5026569;28;20025;-78
2022/12/26 09:50:39;;;;;;;0.80;0.80;;;;;;;;;;5024823;28;20041;-79
2022/12/26 09:53:07;;;;;;;1.13;1.00;;;;;;;;;;5038093;28;20033;-79
2022/12/26 09:55:48;;;;;;;2.35;0.88;;;;;;;;;;5032838;28;20060;-79
2022/12/26 09:58:40;;;;;;;1.15;1.00;;;;;;;;;;5031606;28;20029;-79
2022/12/26 10:01:13;;;;;;;0.70;0.70;;;;;;;;;;5029482;28;20033;-79
2022/12/26 10:03:40;;;;;;;0.70;0.70;;;;;;;;;;5027691;28;20033;-79
2022/12/26 10:06:10;;;;;;;1.23;0.90;;;;;;;;;;5027147;28;20021;-79
2022/12/26 10:08:46;;;;;;;1.92;0.88;;;;;;;;;;5031806;28;20033;-79
2022/12/26 10:11:20;;;;;;;1.30;1.00;;;;;;;;;;5027261;28;20119;-79
2022/12/26 10:13:51;;;;;;;0.77;0.73;;;;;;;;;;5017154;28;20033;-78
2022/12/26 10:16:36;;;;;;;1.60;1.10;;;;;;;;;;5031371;28;20022;-79
2022/12/26 10:19:05;;;;;;;1.05;0.95;;;;;;;;;;5022904;28;20280;-80
2022/12/26 10:21:49;;;;;;;1.67;1.00;;;;;;;;;;5032199;28;20033;-77
2022/12/26 10:24:21;;;;;;;0.90;0.90;;;;;;;;;;5026144;28;20594;-80
2022/12/26 10:26:49;;;;;;;1.15;0.95;;;;;;;;;;5030283;28;20075;-80
2022/12/26 10:29:19;;;;;;;3.15;0.90;;;;;;;;;;5024621;28;20033;-73
2022/12/26 10:31:47;;;;;;;1.30;0.75;;;;;;;;;;5038126;28;20022;-76
2022/12/26 10:34:19;;;;;;;0.93;0.88;;;;;;;;;;5034270;28;20041;-78
2022/12/26 10:36:47;;;;;;;0.88;0.80;;;;;;;;;;5025181;28;20162;-77
2022/12/26 10:39:25;;;;;;;1.30;1.20;;;;;;;;;;5026593;28;20025;-78
2022/12/26 10:41:52;;;;;;;1.02;0.77;;;;;;;;;;5032624;28;20033;-77
2022/12/26 10:44:19;;;;;;;0.82;0.73;;;;;;;;;;5033435;28;20087;-78
2022/12/26 10:46:55;;;;;;;1.48;1.02;;;;;;;;;;5022856;28;20029;-75
2022/12/26 10:49:22;;;;;;;0.88;0.65;;;;;;;;;;5022702;28;20021;-76
2022/12/26 10:51:49;;;;;;;1.63;0.90;;;;;;;;;;5028792;28;20053;-77
2022/12/26 10:54:17;;;;;;;0.65;0.65;;;;;;;;;;5046286;28;20423;-80
2022/12/26 10:56:44;;;;;;;0.77;0.77;;;;;;;;;;5029996;28;20025;-80
2022/12/26 10:59:14;;;;;;;0.95;0.93;;;;;;;;;;5030004;28;20037;-74
2022/12/26 11:01:46;;;;;;;1.42;0.88;;;;;;;;;;5027769;28;20060;-75
2022/12/26 11:07:08;;;;;;;0.90;0.75;;;;;;;;;;5038346;28;20000;-72
2022/12/26 11:09:37;;;;;;;0.70;0.70;;;;;;;;;;5027684;28;20022;-75
2022/12/26 11:12:04;;;;;;;1.40;0.82;;;;;;;;;;5020814;28;20039;-72
2022/12/26 11:14:36;;;;;;;1.60;1.30;;;;;;;;;;5027790;28;20017;-74
2022/12/26 11:17:07;;;;;;;1.42;1.10;;;;;;;;;;5032037;28;20040;-74
2022/12/26 11:19:38;;;;;;;4.00;1.20;;;;;;;;;;5026780;28;20116;-73
2022/12/26 11:22:14;;;;;;;1.40;0.98;;;;;;;;;;5061036;28;20298;-73
2022/12/26 11:24:43;;;;;;;1.88;1.17;;;;;;;;;;5028197;28;20025;-72
2022/12/26 11:27:23;;;;;;;1.73;0.80;;;;;;;;;;5033195;28;20474;-72
2022/12/26 11:29:50;;;;;;;1.00;0.90;;;;;;;;;;5018396;28;20117;-73
2022/12/26 11:32:19;;;;;;;1.60;0.95;;;;;;;;;;5024206;28;20054;-71
2022/12/26 11:34:46;;;;;;;1.02;0.80;;;;;;;;;;5035316;28;20146;-72
2022/12/26 11:37:24;;;;;;;2.88;1.00;;;;;;;;;;5027170;28;20084;-71
2022/12/26 11:39:51;;;;;;;1.30;0.90;;;;;;;;;;5027850;28;20037;-73
2022/12/26 11:42:21;;;;;;;2.42;1.15;;;;;;;;;;5029011;28;20026;-73
2022/12/26 11:44:51;;;;;;;1.23;0.90;;;;;;;;;;5037041;28;20042;-75
2022/12/26 11:47:19;;;;;;;1.15;1.00;;;;;;;;;;5027090;28;20021;-74
2022/12/26 11:49:54;;;;;;;0.80;0.80;;;;;;;;;;5030827;28;20033;-72
2022/12/26 11:52:38;;;;;;;0.98;0.90;;;;;;;;;;5027988;28;20463;-73
2022/12/26 11:55:32;;;;;;;1.75;1.08;;;;;;;;;;5027699;28;20024;-75
2022/12/26 11:58:00;;;;;;;1.00;0.90;;;;;;;;;;5019757;28;20025;-72
2022/12/26 12:00:27;;;;;;;4.28;1.38;;;;;;;;;;5031733;28;20036;-74
2022/12/26 12:02:53;;;;;;;6.38;1.13;;;;;;;;;;5035004;28;20025;-73
2022/12/26 12:05:37;;;;;;;1.17;1.08;;;;;;;;;;5024491;28;20404;-74
2022/12/26 12:08:28;;;;;;;1.80;1.10;;;;;;;;;;5028994;28;20033;-74
2022/12/26 12:10:54;;;;;;;1.13;0.95;;;;;;;;;;5034398;28;20029;-74
2022/12/26 12:13:29;;;;;;;2.78;1.60;;;;;;;;;;5027863;28;20047;-73
2022/12/26 12:16:10;;;;;;;1.90;1.00;;;;;;;;;;5031809;28;20539;-72
2022/12/26 12:18:46;;;;;;;3.25;1.20;;;;;;;;;;5029483;28;20490;-74
2022/12/26 12:21:35;;;;;;;3.25;1.10;;;;;;;;;;5026417;28;20060;-74
2022/12/26 12:24:03;;;;;;;1.58;1.10;;;;;;;;;;5028220;28;20548;-75
2022/12/26 12:26:37;;;;;;;1.10;0.90;;;;;;;;;;5027280;28;20771;-74
2022/12/26 12:29:06;;;;;;;1.30;1.00;;;;;;;;;;5026553;28;20027;-74
2022/12/26 12:31:41;;;;;;;1.60;1.02;;;;;;;;;;5023330;28;20025;-76
2022/12/26 12:34:21;;;;;;;1.95;1.20;;;;;;;;;;5029165;28;20148;-76
2022/12/26 12:36:55;;;;;;;1.80;1.20;;;;;;;;;;5025740;28;20048;-75
2022/12/26 12:39:40;;;;;;;1.52;1.05;;;;;;;;;;5027961;28;20029;-77
2022/12/26 12:42:25;;;;;;;2.47;1.30;;;;;;;;;;5030819;28;20083;-74
2022/12/26 12:45:03;;;;;;;1.13;1.02;;;;;;;;;;5034263;28;20079;-73
2022/12/26 12:47:29;;;;;;;1.48;1.00;;;;;;;;;;5025177;28;20052;-73
2022/12/26 12:50:02;;;;;;;1.75;1.27;;;;;;;;;;5034146;28;20034;-72
2022/12/26 12:52:48;;;;;;;1.80;1.20;;;;;;;;;;5022518;28;20049;-73
2022/12/26 12:55:21;;;;;;;2.25;1.35;;;;;;;;;;5023740;28;20037;-72
2022/12/26 12:57:47;;;;;;;1.50;1.27;;;;;;;;;;5027963;28;20029;-72
2022/12/26 13:00:20;;;;;;;1.50;1.05;;;;;;;;;;5027423;28;20041;-72
2022/12/26 13:02:58;;;;;;;1.88;1.70;;;;;;;;;;5023227;28;20501;-72
2022/12/26 13:05:38;;;;;;;1.58;1.20;;;;;;;;;;5019289;28;20560;-72
2022/12/26 13:08:07;;;;;;;0.82;0.80;;;;;;;;;;5025250;28;20084;-72
2022/12/26 13:10:35;;;;;;;4.53;1.58;;;;;;;;;;5019207;28;20455;-72
2022/12/26 13:13:13;;;;;;;1.42;1.10;;;;;;;;;;5020808;28;20037;-71
2022/12/26 13:15:44;;;;;;;1.83;1.30;;;;;;;;;;5024474;28;20116;-72
2022/12/26 13:18:14;;;;;;;1.00;0.90;;;;;;;;;;5024766;28;20036;-72
2022/12/26 13:20:42;;;;;;;0.90;0.80;;;;;;;;;;5024726;28;20115;-71
2022/12/26 13:26:26;;;;;;;2.38;1.00;;;;;;;;;;5030156;28;20492;-72
2022/12/26 13:29:00;;;;;;;1.77;1.03;;;;;;;;;;5027797;28;20034;-74
2022/12/26 13:31:31;;;;;;;3.00;0.90;;;;;;;;;;5021319;28;20291;-72
2022/12/26 13:33:57;;;;;;;2.28;1.00;;;;;;;;;;5027240;28;20053;-73
2022/12/26 13:36:33;;;;;;;1.23;0.88;;;;;;;;;;5027998;28;20028;-73
2022/12/26 13:39:00;;;;;;;3.65;0.98;;;;;;;;;;5020861;28;20026;-73
2022/12/26 13:44:17;;;;;;;1.70;0.93;;;;;;;;;;5026312;28;20466;-73
2022/12/26 13:46:43;;;;;;;1.20;1.10;;;;;;;;;;5020289;28;20029;-73
2022/12/26 13:49:26;;;;;;;1.42;0.77;;;;;;;;;;5018085;28;20083;-74
2022/12/26 13:51:53;;;;;;;0.93;0.70;;;;;;;;;;5031911;28;20032;-85
2022/12/26 13:54:19;;;;;;;1.10;0.90;;;;;;;;;;5031738;28;20037;-73
2022/12/26 13:56:59;;;;;;;1.63;0.82;;;;;;;;;;5032140;28;20397;-84
2022/12/26 13:59:31;;;;;;;1.00;0.80;;;;;;;;;;5027266;28;20033;-77
2022/12/26 14:02:17;;;;;;;1.42;0.80;;;;;;;;;;5028429;28;20082;-76
2022/12/26 14:05:12;;;;;;;0.95;0.75;;;;;;;;;;5031739;28;20497;-76
2022/12/26 14:07:45;;;;;;;3.30;0.80;;;;;;;;;;5028308;28;20120;-81
2022/12/26 14:10:23;;;;;;;0.90;0.70;;;;;;;;;;5029278;28;20033;-79
2022/12/26 14:13:13;;;;;;;1.27;0.93;;;;;;;;;;5026470;28;20087;-75
2022/12/26 14:15:50;;;;;;;1.25;0.95;;;;;;;;;;5024760;28;20088;-76
2022/12/26 14:18:16;;;;;;;1.42;0.80;;;;;;;;;;5027473;28;20371;-75
2022/12/26 14:20:48;;;;;;;1.52;1.02;;;;;;;;;;5027844;28;20686;-76
2022/12/26 14:23:31;;;;;;;1.30;0.85;;;;;;;;;;5028895;28;20025;-75
2022/12/26 14:26:06;;;;;;;1.10;1.00;;;;;;;;;;5029955;28;20042;-75
2022/12/26 14:28:32;;;;;;;1.20;0.82;;;;;;;;;;5028324;28;20100;-75
2022/12/26 14:31:16;;;;;;;0.75;0.75;;;;;;;;;;5026838;28;20018;-76
2022/12/26 14:33:58;;;;;;;2.50;0.70;;;;;;;;;;5016970;28;20504;-75
2022/12/26 14:36:42;;;;;;;2.80;0.77;;;;;;;;;;5030976;28;20104;-76
2022/12/26 14:39:27;;;;;;;0.70;0.70;;;;;;;;;;5026957;28;20167;-75
2022/12/26 14:44:54;;;;;;;3.13;0.80;;;;;;;;;;5030282;28;20413;-76
2022/12/26 14:47:35;;;;;;;4.60;1.00;;;;;;;;;;5025506;28;20026;-76
2022/12/26 14:50:21;;;;;;;0.75;0.70;;;;;;;;;;5025950;28;20104;-76
2022/12/26 14:52:48;;;;;;;3.30;1.00;;;;;;;;;;5025599;28;20029;-76
2022/12/26 14:55:33;;;;;;;0.88;0.80;;;;;;;;;;5026794;28;20021;-74
2022/12/26 14:58:19;;;;;;;1.13;0.88;;;;;;;;;;5023482;28;20033;-74
2022/12/26 15:00:45;;;;;;;1.00;0.88;;;;;;;;;;5021765;28;20291;-75
2022/12/26 15:03:20;;;;;;;0.60;0.60;;;;;;;;;;5033326;28;20025;-74
2022/12/26 15:05:47;;;;;;;0.95;0.70;;;;;;;;;;5028301;28;20030;-73
2022/12/26 15:08:29;;;;;;;0.90;0.80;;;;;;;;;;5029458;28;20030;-77
2022/12/26 15:11:13;;;;;;;1.33;0.70;;;;;;;;;;5029409;28;20038;-72
2022/12/26 15:13:39;;;;;;;0.77;0.65;;;;;;;;;;5026976;28;20531;-75
2022/12/26 15:16:24;;;;;;;1.20;0.98;;;;;;;;;;5024502;28;20032;-75
2022/12/26 15:19:00;;;;;;;1.15;0.82;;;;;;;;;;5024030;28;20112;-74
2022/12/26 15:21:42;;;;;;;0.95;0.80;;;;;;;;;;5029184;28;20070;-75
2022/12/26 15:24:26;;;;;;;1.40;0.93;;;;;;;;;;5030391;28;20017;-75
2022/12/26 15:27:04;;;;;;;1.73;0.98;;;;;;;;;;5032161;28;20263;-75
2022/12/26 15:29:33;;;;;;;0.73;0.70;;;;;;;;;;5032753;28;20033;-76
2022/12/26 15:32:07;;;;;;;1.42;0.70;;;;;;;;;;5033153;28;20056;-76
2022/12/26 15:34:42;;;;;;;1.55;1.00;;;;;;;;;;5025612;28;20025;-73
2022/12/26 15:37:27;;;;;;;0.93;0.80;;;;;;;;;;5024085;28;20026;-73
2022/12/26 15:39:57;;;;;;;0.90;0.80;;;;;;;;;;5021059;28;20036;-75
2022/12/26 15:42:30;;;;;;;0.77;0.73;;;;;;;;;;5028768;28;20112;-74
2022/12/26 15:45:14;;;;;;;1.10;0.70;;;;;;;;;;5025642;28;20030;-73
2022/12/26 15:47:59;;;;;;;0.75;0.70;;;;;;;;;;5030257;28;20025;-74
2022/12/26 15:50:36;;;;;;;1.05;0.80;;;;;;;;;;5033429;28;20068;-73
2022/12/26 15:53:12;;;;;;;1.00;0.90;;;;;;;;;;5029148;28;20037;-74
2022/12/26 15:55:55;;;;;;;0.82;0.82;;;;;;;;;;5025102;28;20036;-73
2022/12/26 15:58:21;;;;;;;1.10;0.70;;;;;;;;;;5025686;28;20472;-74
2022/12/26 16:00:49;;;;;;;1.42;0.70;;;;;;;;;;5021190;28;20043;-73
2022/12/26 16:03:21;;;;;;;1.90;0.90;;;;;;;;;;5031535;28;20306;-80
2022/12/26 16:05:47;;;;;;;0.80;0.80;;;;;;;;;;5021392;28;20048;-76
2022/12/26 16:08:13;;;;;;;1.90;0.65;;;;;;;;;;5025866;28;20029;-76
2022/12/26 16:10:39;;;;;;;1.00;0.70;;;;;;;;;;5025278;28;20071;-76
2022/12/26 16:13:11;;;;;;;0.93;0.70;;;;;;;;;;5030215;28;20029;-76
2022/12/26 16:15:46;;;;;;;1.55;1.00;;;;;;;;;;5024378;28;20133;-76
2022/12/26 16:18:17;;;;;;;2.10;1.00;;;;;;;;;;5018570;28;20063;-75
2022/12/26 16:23:31;;;;;;;1.05;0.80;;;;;;;;;;5023536;28;20040;-81
2022/12/26 16:26:01;;;;;;;0.95;0.90;;;;;;;;;;5031401;28;20025;-78
2022/12/26 16:28:40;;;;;;;1.33;0.85;;;;;;;;;;5036131;28;20025;-75
2022/12/26 16:31:06;;;;;;;1.08;0.80;;;;;;;;;;5022874;28;20030;-74
2022/12/26 16:33:38;;;;;;;0.82;0.82;;;;;;;;;;5028348;28;20052;-75
2022/12/26 16:36:04;;;;;;;0.70;0.70;;;;;;;;;;5025524;28;20029;-74
2022/12/26 16:38:31;;;;;;;1.08;0.80;;;;;;;;;;5034936;28;20144;-74
2022/12/26 16:40:59;;;;;;;1.30;1.20;;;;;;;;;;5022055;28;20048;-74
2022/12/26 16:43:29;;;;;;;0.95;0.80;;;;;;;;;;5027871;28;20021;-74
2022/12/26 16:46:01;;;;;;;0.80;0.70;;;;;;;;;;5020016;28;20021;-75
2022/12/26 16:48:28;;;;;;;1.17;1.00;;;;;;;;;;5026010;28;20036;-75
2022/12/26 16:50:59;;;;;;;1.45;1.00;;;;;;;;;;5020788;28;20067;-75
2022/12/26 16:53:34;;;;;;;1.00;0.75;;;;;;;;;;5028926;28;20057;-75
2022/12/26 16:56:22;;;;;;;1.40;1.00;;;;;;;;;;5028206;28;20476;-74
2022/12/26 16:58:50;;;;;;;1.10;0.80;;;;;;;;;;5037511;28;20079;-73
2022/12/26 17:01:19;;;;;;;2.70;0.85;;;;;;;;;;5020016;28;20029;-74
2022/12/26 17:03:51;;;;;;;1.08;0.95;;;;;;;;;;5031452;28;20026;-74
2022/12/26 17:06:23;;;;;;;1.25;0.85;;;;;;;;;;5024804;28;20519;-74
2022/12/26 17:08:50;;;;;;;1.08;0.85;;;;;;;;;;5032437;28;20029;-74
2022/12/26 17:11:17;;;;;;;1.52;0.82;;;;;;;;;;5022068;28;20033;-74
2022/12/26 17:13:49;;;;;;;0.70;0.65;;;;;;;;;;5030803;28;20061;-75
2022/12/26 17:16:15;;;;;;;0.80;0.73;;;;;;;;;;5023753;28;20030;-75
2022/12/26 17:18:41;;;;;;;36.50;1.90;;;;;;;;;;5026915;28;20022;-79
2022/12/26 17:21:29;;;;;;;92.75;11.90;;;;;;;;;;5023190;28;20116;-79
2022/12/26 17:24:25;;;;;;;56.78;4.03;;;;;;;;;;5029076;28;20026;-79
2022/12/26 17:27:08;;;;;;;44.10;4.18;;;;;;;;;;5028716;28;20065;-79